Time;durP1;ratioP1;P1;durP2;ratioP2;P2;SDS_P1;SDS_P2;PMS_P1;PMS_P2;Temp;Humidity;BMP_temperature;BMP_pressure;BME280_temperature;BME280_humidity;BME280_pressure;Samples;Min_cycle;Max_cycle;Signal;HPM_P1;HPM_P2
2024/03/24 00:00:04;;;;;;;7.30;4.20;;;;;;;7.76;58.04;98023.79;233999;179;153352;-59
2024/03/24 00:05:33;;;;;;;7.00;3.60;;;;;;;7.72;58.12;98044.05;233866;179;138499;-59
2024/03/24 00:10:36;;;;;;;7.40;3.80;;;;;;;7.67;57.94;98059.36;233920;179;137964;-56
2024/03/24 00:15:39;;;;;;;5.90;3.30;;;;;;;7.72;57.81;98063.45;233828;179;153215;-57
2024/03/24 00:20:42;;;;;;;7.00;3.30;;;;;;;7.76;57.68;98066.16;233907;179;137112;-56
2024/03/24 00:25:45;;;;;;;6.30;3.70;;;;;;;7.78;57.45;98054.55;233797;179;137855;-59
2024/03/24 00:30:48;;;;;;;11.70;3.80;;;;;;;7.78;57.08;98039.95;233867;179;153858;-55
2024/03/24 00:35:51;;;;;;;6.00;3.10;;;;;;;7.79;56.79;98020.09;233834;168;138470;-59
2024/03/24 00:40:54;;;;;;;7.60;3.60;;;;;;;7.81;56.93;97990.27;233899;179;137912;-56
2024/03/24 00:45:57;;;;;;;7.90;3.10;;;;;;;7.78;56.58;97964.30;233817;179;153963;-59
2024/03/24 00:51:00;;;;;;;8.80;2.80;;;;;;;7.74;56.19;97934.79;233669;178;138106;-59
2024/03/24 00:56:04;;;;;;;7.10;2.60;;;;;;;7.69;55.93;97910.55;233841;178;139568;-58
2024/03/24 01:01:07;;;;;;;5.80;2.40;;;;;;;7.71;56.16;97939.89;233887;178;153610;-58
2024/03/24 01:06:10;;;;;;;5.10;2.60;;;;;;;7.75;56.09;97912.84;233842;179;137634;-59
2024/03/24 01:11:13;;;;;;;8.10;3.20;;;;;;;7.71;56.27;97897.71;233936;179;138408;-57
2024/03/24 01:16:16;;;;;;;7.40;3.20;;;;;;;7.72;56.24;97914.96;233863;179;153307;-58
2024/03/24 01:21:20;;;;;;;6.50;3.20;;;;;;;7.73;56.15;97896.71;233819;179;138346;-58
2024/03/24 01:26:23;;;;;;;8.30;3.60;;;;;;;7.68;56.37;97905.52;233849;179;137891;-59
2024/03/24 01:31:26;;;;;;;6.50;3.10;;;;;;;7.66;56.32;97924.89;233851;179;153165;-59
2024/03/24 01:36:30;;;;;;;7.00;3.40;;;;;;;7.67;56.27;97936.83;233838;179;137870;-59
2024/03/24 01:41:33;;;;;;;7.00;3.10;;;;;;;7.67;56.19;97939.89;233837;179;138031;-56
2024/03/24 01:46:36;;;;;;;7.40;3.00;;;;;;;7.62;56.17;97938.40;233866;179;152952;-58
2024/03/24 01:51:39;;;;;;;6.70;3.20;;;;;;;7.53;56.48;97934.60;233895;179;137277;-58
2024/03/24 01:56:43;;;;;;;9.10;3.50;;;;;;;7.52;56.61;97937.84;233868;179;138674;-57
2024/03/24 02:01:46;;;;;;;6.40;3.50;;;;;;;7.57;56.62;97938.39;233832;179;153633;-59
2024/03/24 02:06:49;;;;;;;8.10;3.80;;;;;;;7.58;56.67;97937.66;233805;179;137271;-58
2024/03/24 02:11:52;;;;;;;7.30;3.10;;;;;;;7.59;56.68;97943.05;233923;168;137505;-59
2024/03/24 02:16:55;;;;;;;6.80;3.20;;;;;;;7.57;56.93;97950.59;233865;179;153349;-58
2024/03/24 02:21:58;;;;;;;8.00;3.80;;;;;;;7.56;56.97;97950.11;233796;179;139531;-55
2024/03/24 02:27:01;;;;;;;9.80;3.50;;;;;;;7.56;57.20;97945.67;233799;179;137695;-55
2024/03/24 02:32:04;;;;;;;7.60;2.90;;;;;;;7.55;57.09;97942.05;233696;179;153293;-59
2024/03/24 02:37:07;;;;;;;10.30;2.80;;;;;;;7.55;57.13;97946.31;233882;179;138014;-58
2024/03/24 02:42:10;;;;;;;8.60;3.00;;;;;;;7.53;57.22;97940.98;233805;180;138420;-58
2024/03/24 02:47:13;;;;;;;9.50;3.50;;;;;;;7.55;57.30;97935.19;233859;179;153204;-57
2024/03/24 02:52:16;;;;;;;8.10;3.40;;;;;;;7.55;57.37;97924.39;233907;171;137216;-59
2024/03/24 02:57:19;;;;;;;7.30;3.30;;;;;;;7.55;57.50;97923.86;233917;179;137139;-58
2024/03/24 03:02:22;;;;;;;6.60;3.50;;;;;;;7.55;57.62;97921.61;233838;179;153373;-59
2024/03/24 03:07:25;;;;;;;7.90;3.80;;;;;;;7.54;57.93;97928.39;233829;178;139280;-57
2024/03/24 03:12:27;;;;;;;7.80;3.90;;;;;;;7.48;58.10;97923.29;233882;179;137240;-56
2024/03/24 03:17:32;;;;;;;5.70;3.50;;;;;;;7.48;58.28;97939.51;233829;179;152955;-57
2024/03/24 03:22:34;;;;;;;9.00;3.40;;;;;;;7.48;58.36;97941.66;233833;178;137573;-57
2024/03/24 03:27:38;;;;;;;8.80;3.90;;;;;;;7.33;58.56;97944.42;233813;168;137052;-56
2024/03/24 03:32:41;;;;;;;7.20;4.00;;;;;;;7.25;59.15;97935.27;233853;179;154935;-57
2024/03/24 03:37:44;;;;;;;10.20;4.20;;;;;;;7.22;59.37;97931.05;233867;179;137697;-57
2024/03/24 03:42:47;;;;;;;8.30;4.00;;;;;;;7.17;59.65;97920.64;233901;179;138397;-58
2024/03/24 03:47:50;;;;;;;8.00;4.20;;;;;;;7.09;59.91;97907.06;233843;179;152862;-58
2024/03/24 03:52:55;;;;;;;9.10;4.40;;;;;;;7.03;60.34;97893.01;233262;179;138631;-55
2024/03/24 03:57:58;;;;;;;10.80;4.50;;;;;;;6.98;60.58;97895.27;233905;178;137268;-58
2024/03/24 04:03:01;;;;;;;8.60;4.60;;;;;;;6.89;60.69;97894.58;233811;179;155003;-58
2024/03/24 04:08:05;;;;;;;11.50;5.10;;;;;;;6.84;61.18;97900.56;233817;179;137125;-58
2024/03/24 04:13:08;;;;;;;10.60;5.20;;;;;;;6.83;61.40;97897.80;233870;179;137665;-59
2024/03/24 04:18:10;;;;;;;10.40;5.50;;;;;;;6.89;61.56;97900.79;233802;179;152928;-59
2024/03/24 04:23:13;;;;;;;10.80;5.50;;;;;;;6.95;61.50;97908.33;233920;179;138415;-56
2024/03/24 04:28:16;;;;;;;9.80;5.30;;;;;;;6.91;61.44;97910.34;233318;178;138658;-59
2024/03/24 04:33:19;;;;;;;11.80;5.60;;;;;;;6.76;61.70;97904.61;233398;179;153499;-57
2024/03/24 04:38:22;;;;;;;8.60;5.70;;;;;;;6.70;61.86;97895.69;233832;179;138365;-59
2024/03/24 04:43:26;;;;;;;13.10;5.40;;;;;;;6.68;61.91;97895.11;233899;179;138087;-59
2024/03/24 04:48:29;;;;;;;11.60;6.10;;;;;;;6.71;61.79;97904.42;233806;179;154226;-58
2024/03/24 04:53:32;;;;;;;8.70;5.20;;;;;;;6.73;61.80;97900.59;233840;179;138582;-56
2024/03/24 04:58:35;;;;;;;11.10;5.50;;;;;;;6.70;61.73;97901.98;233869;178;137260;-54
2024/03/24 05:03:38;;;;;;;10.30;5.90;;;;;;;6.71;61.86;97919.20;233851;179;153189;-56
2024/03/24 05:08:41;;;;;;;10.20;6.00;;;;;;;6.76;61.87;97918.89;233841;179;137886;-58
2024/03/24 05:13:47;;;;;;;13.50;5.80;;;;;;;6.80;61.83;97927.09;233917;179;137427;-59
2024/03/24 05:18:51;;;;;;;12.30;5.90;;;;;;;6.84;61.99;97925.98;233834;179;153162;-59
2024/03/24 05:23:54;;;;;;;11.10;6.00;;;;;;;6.91;62.07;97926.73;233831;179;138464;-56
2024/03/24 05:28:57;;;;;;;12.50;5.90;;;;;;;7.00;62.11;97925.29;233862;179;137276;-55
2024/03/24 05:34:00;;;;;;;10.20;6.10;;;;;;;7.06;62.37;97916.92;233813;179;153304;-57
2024/03/24 05:39:03;;;;;;;11.20;6.20;;;;;;;7.16;62.56;97914.89;233819;179;137177;-59
2024/03/24 05:44:06;;;;;;;9.90;6.30;;;;;;;7.22;62.83;97918.19;233852;179;138074;-60
2024/03/24 05:49:10;;;;;;;10.60;6.70;;;;;;;7.28;62.59;97911.09;233830;179;154200;-58
2024/03/24 05:54:13;;;;;;;11.90;6.50;;;;;;;7.32;62.42;97911.35;233839;179;138584;-58
2024/03/24 05:59:16;;;;;;;13.10;7.10;;;;;;;7.37;62.18;97903.05;233905;179;137775;-58
2024/03/24 06:04:19;;;;;;;10.00;6.60;;;;;;;7.47;61.91;97891.27;233892;179;153665;-53
2024/03/24 06:09:22;;;;;;;12.80;7.40;;;;;;;7.60;61.81;97884.72;233902;179;138423;-58
2024/03/24 06:14:25;;;;;;;10.80;7.00;;;;;;;7.66;61.60;97883.59;233718;179;137382;-57
2024/03/24 06:19:28;;;;;;;11.20;7.30;;;;;;;7.76;61.73;97888.17;233784;179;154319;-58
2024/03/24 06:24:31;;;;;;;12.70;6.90;;;;;;;7.91;61.59;97898.48;233876;179;137959;-57
2024/03/24 06:29:35;;;;;;;10.00;6.70;;;;;;;8.11;61.45;97903.78;233727;179;138253;-56
2024/03/24 06:34:38;;;;;;;12.50;6.80;;;;;;;8.26;61.03;97909.99;233865;178;153188;-57
2024/03/24 06:39:41;;;;;;;9.70;6.10;;;;;;;8.26;60.23;97911.16;233871;179;137138;-59
2024/03/24 06:44:46;;;;;;;10.70;6.20;;;;;;;8.25;60.77;97912.85;233749;179;137063;-55
2024/03/24 06:49:49;;;;;;;646.20;510.60;;;;;;;8.39;60.40;97900.75;233852;179;153485;-59
2024/03/24 06:54:53;;;;;;;31.40;19.40;;;;;;;8.65;60.41;97897.48;233816;168;138548;-55
2024/03/24 06:59:56;;;;;;;13.70;8.70;;;;;;;8.73;59.15;97893.52;233210;179;138415;-54
2024/03/24 07:04:59;;;;;;;13.10;6.90;;;;;;;8.83;58.52;97901.52;233784;179;153731;-57
2024/03/24 07:10:03;;;;;;;150.30;118.50;;;;;;;8.94;58.27;97915.17;233899;178;137363;-58
2024/03/24 07:15:07;;;;;;;12.30;8.50;;;;;;;8.95;57.64;97919.71;233846;178;137940;-57
2024/03/24 07:20:11;;;;;;;8.90;6.10;;;;;;;8.81;57.53;97921.95;233920;179;154543;-58
2024/03/24 07:25:14;;;;;;;13.30;7.90;;;;;;;8.82;58.34;97924.55;233857;179;137246;-56
2024/03/24 07:30:17;;;;;;;12.40;6.20;;;;;;;8.87;58.00;97931.63;233761;179;138690;-55
2024/03/24 07:35:20;;;;;;;11.10;6.30;;;;;;;8.84;58.48;97930.94;233835;178;154184;-56
2024/03/24 07:40:24;;;;;;;12.30;7.70;;;;;;;8.70;58.97;97937.65;233892;168;138374;-53
2024/03/24 07:45:30;;;;;;;74.00;54.00;;;;;;;8.25;59.74;97950.15;233917;179;138412;-57
2024/03/24 07:50:33;;;;;;;13.20;9.60;;;;;;;7.89;61.58;97951.08;233862;179;153167;-58
2024/03/24 07:55:36;;;;;;;21.00;12.30;;;;;;;7.66;62.43;97952.06;233782;179;138545;-57
2024/03/24 08:00:39;;;;;;;15.80;9.70;;;;;;;7.52;63.43;97946.88;233887;179;137134;-58
2024/03/24 08:05:42;;;;;;;12.20;8.80;;;;;;;7.48;63.95;97950.65;233563;179;153593;-58
2024/03/24 08:10:45;;;;;;;13.10;9.10;;;;;;;7.43;64.46;97952.79;233816;179;138056;-56
2024/03/24 08:15:48;;;;;;;211.80;160.30;;;;;;;7.47;64.93;97949.89;233873;179;138125;-57
2024/03/24 08:20:51;;;;;;;14.10;10.70;;;;;;;7.61;65.23;97946.94;233872;168;153323;-55
2024/03/24 08:25:58;;;;;;;12.60;8.90;;;;;;;7.57;64.73;97953.41;233742;179;138631;-57
2024/03/24 08:31:01;;;;;;;13.10;9.80;;;;;;;7.45;65.40;97956.15;233800;179;139367;-56
2024/03/24 08:36:04;;;;;;;13.80;8.40;;;;;;;7.45;65.41;97961.30;233845;179;152951;-58
2024/03/24 08:41:12;;;;;;;11.80;8.70;;;;;;;7.42;65.34;97962.35;233855;178;138023;-58
2024/03/24 08:46:15;;;;;;;11.00;8.60;;;;;;;7.43;65.35;97953.65;233878;178;137948;-56
2024/03/24 08:51:18;;;;;;;13.40;9.10;;;;;;;7.54;65.45;97953.98;233400;179;153792;-54
2024/03/24 08:56:21;;;;;;;13.10;9.20;;;;;;;7.66;65.48;97955.11;233823;178;137292;-55
2024/03/24 09:01:24;;;;;;;15.00;9.10;;;;;;;7.78;65.34;97957.61;233833;179;137042;-57
2024/03/24 09:06:27;;;;;;;15.10;9.40;;;;;;;7.83;64.98;97960.98;233843;179;153250;-58
2024/03/24 09:11:30;;;;;;;33.80;25.60;;;;;;;7.94;64.54;97969.45;233895;178;137117;-55
2024/03/24 09:16:33;;;;;;;19.80;11.30;;;;;;;7.97;64.79;97971.36;233876;178;138369;-55
2024/03/24 09:21:39;;;;;;;10.10;6.70;;;;;;;7.75;64.46;97963.84;233832;179;153221;-58
2024/03/24 09:26:43;;;;;;;6.10;5.10;;;;;;;7.68;65.61;97962.89;233840;178;136975;-57
2024/03/24 09:31:45;;;;;;;11.40;7.60;;;;;;;7.80;65.63;97962.59;233726;179;137170;-57
2024/03/24 09:36:49;;;;;;;13.00;8.70;;;;;;;7.58;65.78;97967.81;233908;179;154289;-57
2024/03/24 09:41:53;;;;;;;6.90;5.50;;;;;;;7.54;65.10;97982.89;233833;179;137440;-58
2024/03/24 09:46:59;;;;;;;6.80;4.50;;;;;;;7.39;64.58;97990.27;233870;179;140100;-57
2024/03/24 09:52:04;;;;;;;6.40;4.60;;;;;;;7.19;64.77;97989.66;233475;171;153497;-58
2024/03/24 09:57:07;;;;;;;3.70;3.00;;;;;;;7.09;64.86;97999.29;233801;179;137995;-58
2024/03/24 10:02:12;;;;;;;13.50;6.90;;;;;;;6.99;65.33;97990.07;233856;178;137921;-59
2024/03/24 10:07:15;;;;;;;11.50;7.40;;;;;;;6.96;65.51;97982.13;233861;179;153691;-57
2024/03/24 10:12:19;;;;;;;3.80;2.50;;;;;;;7.09;65.39;97957.80;233896;179;137905;-58
2024/03/24 10:17:22;;;;;;;4.80;2.80;;;;;;;7.12;65.02;97963.43;233532;179;138593;-62
2024/03/24 10:22:25;;;;;;;4.80;3.10;;;;;;;7.12;65.03;97983.55;233754;179;153931;-63
2024/03/24 10:27:29;;;;;;;3.50;2.80;;;;;;;7.01;64.91;97965.90;233834;179;138578;-63
2024/03/24 10:32:32;;;;;;;2.90;2.50;;;;;;;6.81;65.61;97939.54;233850;179;141636;-63
2024/03/24 10:37:36;;;;;;;3.20;2.00;;;;;;;6.91;66.10;97939.81;233868;179;153211;-61
2024/03/24 10:42:54;;;;;;;2.50;2.30;;;;;;;7.02;66.43;97932.00;233946;179;138024;-62
2024/03/24 10:48:03;;;;;;;3.00;2.20;;;;;;;7.37;67.91;97909.05;233905;179;137236;-63
2024/03/24 10:53:13;;;;;;;2.90;2.10;;;;;;;7.58;66.80;97918.23;233847;178;153668;-62
2024/03/24 10:58:20;;;;;;;2.40;2.00;;;;;;;7.96;66.95;97915.94;233899;179;137722;-61
2024/03/24 11:03:23;;;;;;;2.50;1.90;;;;;;;8.47;67.17;97915.40;233840;179;137175;-59
2024/03/24 11:08:26;;;;;;;2.40;2.10;;;;;;;8.96;65.59;97915.95;233832;179;155148;-61
2024/03/24 11:13:34;;;;;;;2.50;2.00;;;;;;;9.39;63.94;97902.81;233874;179;137230;-62
2024/03/24 11:18:37;;;;;;;2.60;2.00;;;;;;;9.76;63.13;97888.48;233865;179;137259;-62
2024/03/24 11:23:40;;;;;;;3.00;1.80;;;;;;;10.00;61.56;97886.97;233817;179;153185;-63
2024/03/24 11:28:50;;;;;;;2.50;2.00;;;;;;;10.23;60.28;97875.42;233805;179;137670;-62
2024/03/24 11:34:00;;;;;;;2.90;2.20;;;;;;;10.41;58.85;97878.60;233863;179;137139;-62
2024/03/24 11:39:06;;;;;;;3.30;2.90;;;;;;;10.58;58.05;97877.59;233842;179;153852;-62
2024/03/24 11:44:09;;;;;;;5.60;2.70;;;;;;;10.91;56.62;97885.04;233600;178;138705;-62
2024/03/24 11:49:12;;;;;;;3.50;2.60;;;;;;;10.88;55.28;97879.58;233816;179;138774;-61
2024/03/24 11:54:15;;;;;;;2.60;1.20;;;;;;;10.62;54.66;97902.25;233647;179;154932;-62
2024/03/24 11:59:20;;;;;;;1.40;0.60;;;;;;;9.87;54.08;97910.45;233769;179;138729;-63
2024/03/24 12:04:24;;;;;;;1.10;0.70;;;;;;;9.14;55.42;97916.91;233855;179;139315;-62
2024/03/24 12:09:30;;;;;;;1.20;0.80;;;;;;;8.51;57.77;97912.27;233647;179;152997;-60
2024/03/24 12:14:34;;;;;;;;;;;;;;;8.02;59.28;97907.95;233831;179;137886;-62
2024/03/24 12:19:37;;;;;;;1.90;1.30;;;;;;;7.69;60.99;97912.53;233941;179;136819;-62
2024/03/24 12:24:40;;;;;;;1.70;1.10;;;;;;;7.43;62.93;97917.30;233835;175;154492;-62
2024/03/24 12:29:51;;;;;;;2.30;1.10;;;;;;;7.31;64.41;97924.64;233924;179;138111;-62
2024/03/24 12:35:00;;;;;;;1.90;1.30;;;;;;;7.10;64.84;97909.44;233871;179;138275;-61
2024/03/24 12:40:04;;;;;;;2.90;1.50;;;;;;;7.00;64.97;97892.66;233849;179;153182;-62
2024/03/24 12:45:08;;;;;;;1.70;1.30;;;;;;;7.03;65.07;97878.70;233873;178;137200;-61
2024/03/24 12:50:28;;;;;;;1.50;1.40;;;;;;;7.12;64.57;97862.23;233877;178;137837;-62
2024/03/24 12:55:48;;;;;;;2.50;1.80;;;;;;;7.32;64.17;97849.42;233907;179;153452;-62
2024/03/24 13:00:52;;;;;;;4.10;2.80;;;;;;;7.59;63.97;97840.81;233775;179;138077;-61
2024/03/24 13:05:58;;;;;;;2.50;1.50;;;;;;;8.29;64.47;97834.48;233922;179;137682;-61
2024/03/24 13:11:03;;;;;;;4.00;1.80;;;;;;;9.23;63.95;97824.34;233837;175;152953;-61
2024/03/24 13:16:29;;;;;;;2.30;1.50;;;;;;;10.02;61.09;97820.33;233883;179;140373;-59
2024/03/24 13:21:36;;;;;;;2.30;1.70;;;;;;;10.80;58.12;97815.63;233860;179;137383;-59
2024/03/24 13:26:44;;;;;;;2.60;1.70;;;;;;;11.52;56.25;97807.48;233825;168;153261;-59
2024/03/24 13:31:47;;;;;;;2.80;1.70;;;;;;;12.14;54.64;97803.11;233828;179;137907;-59
2024/03/24 13:37:11;;;;;;;2.80;1.60;;;;;;;12.80;52.69;97801.66;233878;179;137786;-59
2024/03/24 13:42:31;;;;;;;2.90;1.60;;;;;;;13.43;50.54;97789.72;233856;179;153422;-60
2024/03/24 13:47:37;;;;;;;4.50;1.90;;;;;;;13.83;49.32;97773.91;233789;179;138658;-60
2024/03/24 13:52:42;;;;;;;1.60;1.50;;;;;;;14.20;46.89;97770.14;233837;179;137912;-60
2024/03/24 13:57:45;;;;;;;2.90;1.80;;;;;;;14.33;45.46;97769.10;233793;179;153782;-59
2024/03/24 14:02:48;;;;;;;2.80;1.60;;;;;;;14.23;44.19;97763.84;233808;179;138429;-57
2024/03/24 14:07:52;;;;;;;2.60;1.70;;;;;;;13.86;43.92;97755.47;233875;179;137830;-60
2024/03/24 14:13:43;;;;;;;3.50;2.00;;;;;;;13.32;44.24;97757.56;233844;168;153759;-58
2024/03/24 14:18:48;;;;;;;4.10;2.10;;;;;;;12.72;44.62;97755.77;233858;175;137494;-63
2024/03/24 14:23:56;;;;;;;3.20;1.80;;;;;;;12.35;45.25;97756.86;233872;179;137501;-59
2024/03/24 14:28:59;;;;;;;3.30;2.10;;;;;;;11.98;45.50;97751.09;233764;179;152948;-59
2024/03/24 14:34:02;;;;;;;3.40;2.20;;;;;;;11.62;46.19;97749.03;233794;179;150140;-56
2024/03/24 14:39:18;;;;;;;4.20;2.10;;;;;;;11.45;46.70;97739.36;233826;175;137554;-59
2024/03/24 14:44:42;;;;;;;3.00;2.10;;;;;;;11.44;46.83;97735.70;233872;178;154227;-56
2024/03/24 14:49:45;;;;;;;6.90;4.90;;;;;;;11.09;46.86;97737.63;233819;178;137573;-57
2024/03/24 14:54:48;;;;;;;4.60;2.70;;;;;;;10.91;47.14;97735.80;233878;179;138022;-57
2024/03/24 14:59:53;;;;;;;4.60;2.10;;;;;;;10.75;47.22;97726.86;233879;168;154185;-58
2024/03/24 15:04:56;;;;;;;5.00;2.20;;;;;;;10.72;47.85;97725.87;233810;178;137894;-58
2024/03/24 15:09:59;;;;;;;6.90;2.40;;;;;;;10.69;48.07;97716.74;233849;179;137746;-58
2024/03/24 15:15:03;;;;;;;4.70;2.50;;;;;;;10.74;48.48;97710.60;233846;179;153145;-58
2024/03/24 15:20:10;;;;;;;5.20;2.60;;;;;;;10.78;48.00;97710.50;233847;179;141523;-58
2024/03/24 15:25:13;;;;;;;4.00;2.30;;;;;;;10.75;48.07;97711.38;233836;179;137679;-56
2024/03/24 15:30:16;;;;;;;3.20;2.30;;;;;;;10.70;48.27;97712.71;233745;179;152958;-58
2024/03/24 15:35:19;;;;;;;5.70;2.50;;;;;;;10.57;48.36;97710.64;233820;179;137653;-59
2024/03/24 15:40:22;;;;;;;5.20;2.50;;;;;;;10.50;49.03;97707.44;233712;179;138833;-58
2024/03/24 15:45:25;;;;;;;3.60;2.40;;;;;;;10.48;49.24;97701.94;233884;179;153303;-59
2024/03/24 15:50:28;;;;;;;6.10;2.10;;;;;;;10.62;48.70;97693.14;233791;179;137476;-58
2024/03/24 15:55:41;;;;;;;3.30;1.80;;;;;;;10.69;47.78;97691.88;233798;178;142109;-57
2024/03/24 16:00:50;;;;;;;109.70;78.20;;;;;;;10.68;47.49;97695.00;233814;178;153136;-53
2024/03/24 16:05:52;;;;;;;7.10;3.90;;;;;;;10.70;48.07;97695.16;233785;171;140059;-50
2024/03/24 16:11:15;;;;;;;4.60;2.60;;;;;;;10.72;46.89;97698.70;233829;179;138274;-50
2024/03/24 16:16:18;;;;;;;4.50;2.50;;;;;;;10.73;46.42;97701.47;233275;178;153581;-53
2024/03/24 16:21:51;;;;;;;5.10;2.30;;;;;;;10.70;46.12;97703.52;233837;179;137738;-50
2024/03/24 16:26:54;;;;;;;2.40;1.80;;;;;;;10.65;46.26;97703.02;233786;178;138458;-53
2024/03/24 16:31:57;;;;;;;4.80;3.20;;;;;;;10.56;46.05;97706.23;233795;178;153186;-51
2024/03/24 16:37:00;;;;;;;4.10;2.20;;;;;;;10.55;46.07;97707.05;233832;179;137389;-51
2024/03/24 16:42:03;;;;;;;3.20;1.80;;;;;;;10.58;45.99;97708.42;233754;172;141410;-51
2024/03/24 16:47:06;;;;;;;3.60;1.60;;;;;;;10.60;45.25;97717.42;233825;179;153800;-50
2024/03/24 16:52:09;;;;;;;2.30;1.20;;;;;;;10.59;43.82;97713.30;233652;178;142504;-49
2024/03/24 16:57:12;;;;;;;3.00;1.50;;;;;;;10.51;43.17;97715.70;233699;178;138622;-54
2024/03/24 17:02:19;;;;;;;3.10;1.50;;;;;;;10.47;43.25;97709.52;233858;179;152989;-54
2024/03/24 17:07:22;;;;;;;4.00;1.80;;;;;;;10.39;43.25;97700.20;233814;179;137521;-49
2024/03/24 17:12:25;;;;;;;112.80;79.70;;;;;;;10.36;44.20;97702.04;233856;179;137910;-55
2024/03/24 17:17:28;;;;;;;8.70;4.80;;;;;;;10.46;44.22;97705.15;233409;178;153202;-51
2024/03/24 17:22:31;;;;;;;3.20;1.80;;;;;;;10.38;43.69;97708.45;233714;179;137761;-52
2024/03/24 17:27:34;;;;;;;4.20;1.60;;;;;;;10.26;43.69;97708.05;233768;178;138513;-50
2024/03/24 17:32:37;;;;;;;3.60;1.60;;;;;;;10.16;43.66;97710.27;233807;179;153844;-52
2024/03/24 17:37:41;;;;;;;4.90;1.70;;;;;;;10.08;43.83;97717.60;233780;179;136975;-52
2024/03/24 17:42:44;;;;;;;2.60;1.30;;;;;;;10.07;43.99;97718.93;233789;179;138183;-55
2024/03/24 17:47:47;;;;;;;5.70;2.00;;;;;;;10.06;45.25;97718.11;233748;179;153374;-50
2024/03/24 17:52:50;;;;;;;4.10;1.60;;;;;;;10.37;44.76;97716.67;233469;179;138968;-51
2024/03/24 17:57:55;;;;;;;3.70;1.60;;;;;;;10.28;44.11;97723.11;233807;179;136951;-53
2024/03/24 18:02:59;;;;;;;3.80;1.70;;;;;;;10.14;44.23;97733.23;233688;179;153596;-52
2024/03/24 18:13:24;;;;;;;7.70;5.00;;;;;;;10.07;45.12;97741.63;233748;179;139136;-54
2024/03/24 18:18:27;;;;;;;3.30;2.10;;;;;;;10.01;44.53;97742.10;233736;179;154367;-53
2024/03/24 18:23:32;;;;;;;5.20;2.40;;;;;;;9.97;44.77;97739.77;233736;179;138214;-55
2024/03/24 18:28:37;;;;;;;7.50;2.40;;;;;;;9.86;46.06;97740.70;233812;179;138185;-53
2024/03/24 18:33:42;;;;;;;3.70;2.10;;;;;;;9.79;45.56;97742.31;233645;178;152978;-52
2024/03/24 18:38:46;;;;;;;5.20;2.00;;;;;;;9.75;45.66;97740.99;233815;179;137634;-49
2024/03/24 18:43:49;;;;;;;64.80;51.40;;;;;;;9.75;47.78;97744.94;233773;178;137992;-52
2024/03/24 18:48:52;;;;;;;5.50;3.00;;;;;;;9.70;49.04;97742.43;233705;168;152916;-53
2024/03/24 18:53:55;;;;;;;5.90;2.60;;;;;;;9.55;49.13;97742.42;233785;179;137389;-54
2024/03/24 18:58:58;;;;;;;11.00;3.50;;;;;;;9.42;48.62;97749.98;233707;179;137663;-51
2024/03/24 19:04:02;;;;;;;11.00;3.20;;;;;;;9.38;49.57;97751.73;233636;179;154123;-56
2024/03/24 19:09:08;;;;;;;11.80;2.90;;;;;;;9.34;49.93;97751.89;233760;179;137546;-49
2024/03/24 19:14:11;;;;;;;15.70;3.20;;;;;;;9.24;50.21;97754.19;233790;178;137439;-50
2024/03/24 19:19:14;;;;;;;88.50;48.60;;;;;;;9.14;50.19;97756.75;233458;179;153349;-51
2024/03/24 19:24:17;;;;;;;8.70;4.90;;;;;;;9.07;49.86;97768.28;233815;176;138902;-49
2024/03/24 19:29:20;;;;;;;8.10;4.10;;;;;;;9.02;49.20;97769.31;233735;179;137139;-50
2024/03/24 19:34:23;;;;;;;8.40;4.40;;;;;;;9.05;49.31;97765.43;233781;179;154866;-50
2024/03/24 19:39:26;;;;;;;6.00;3.30;;;;;;;9.04;49.37;97759.09;233789;179;138194;-50
2024/03/24 19:44:31;;;;;;;7.30;3.50;;;;;;;9.10;49.53;97750.00;233762;178;138057;-50
2024/03/24 19:49:35;;;;;;;8.00;3.30;;;;;;;9.15;49.48;97751.70;233751;179;153801;-49
2024/03/24 19:54:38;;;;;;;6.50;3.60;;;;;;;9.18;49.36;97751.12;233722;179;138553;-52
2024/03/24 19:59:44;;;;;;;7.70;3.40;;;;;;;9.22;49.42;97750.77;233798;178;138489;-56
2024/03/24 20:04:47;;;;;;;25.40;17.70;;;;;;;9.25;50.01;97748.31;233764;178;154167;-53
2024/03/24 20:09:54;;;;;;;7.50;4.10;;;;;;;9.30;50.33;97745.80;233819;179;138888;-48
2024/03/24 20:15:01;;;;;;;403.80;323.20;;;;;;;9.24;50.08;97749.09;233801;179;137636;-47
2024/03/24 20:20:04;;;;;;;18.20;10.80;;;;;;;9.29;50.23;97756.67;233737;179;154834;-52
2024/03/24 20:25:09;;;;;;;8.90;5.10;;;;;;;9.27;49.83;97754.49;233795;178;137564;-48
2024/03/24 20:30:13;;;;;;;10.10;5.30;;;;;;;9.20;50.00;97750.41;233743;179;138068;-52
2024/03/24 20:35:16;;;;;;;9.50;5.70;;;;;;;9.16;50.24;97749.54;233807;178;153696;-50
2024/03/24 20:40:19;;;;;;;9.90;5.40;;;;;;;9.10;50.53;97745.25;233876;179;137687;-51
2024/03/24 20:45:23;;;;;;;8.50;5.50;;;;;;;8.97;50.74;97744.63;233874;179;140512;-51
2024/03/24 20:50:26;;;;;;;12.00;5.50;;;;;;;8.88;51.05;97742.84;233784;179;153231;-50
2024/03/24 20:55:32;;;;;;;335.40;237.40;;;;;;;8.88;52.67;97739.46;233855;179;138836;-48
2024/03/24 21:00:35;;;;;;;17.20;10.70;;;;;;;9.04;52.09;97744.05;233241;179;138657;-53
2024/03/24 21:05:38;;;;;;;346.80;248.30;;;;;;;8.93;53.00;97743.52;233316;179;153333;-52
2024/03/24 21:10:42;;;;;;;19.40;10.40;;;;;;;8.96;54.90;97739.05;233803;179;137987;-53
2024/03/24 21:15:47;;;;;;;;;;;;;;;8.77;53.12;97733.23;233856;179;139255;-55
2024/03/24 21:20:51;;;;;;;12.30;7.20;;;;;;;8.57;53.26;97733.29;233881;179;154069;-53
2024/03/24 21:25:54;;;;;;;10.70;6.00;;;;;;;8.46;53.25;97731.10;233792;179;137507;-52
2024/03/24 21:30:57;;;;;;;13.20;6.00;;;;;;;8.42;53.25;97729.81;233843;178;137254;-53
2024/03/24 21:36:00;;;;;;;10.00;5.90;;;;;;;8.41;53.05;97724.64;233840;179;154016;-51
2024/03/24 21:46:25;;;;;;;12.20;6.60;;;;;;;8.22;54.73;97726.85;233439;179;138451;-55
2024/03/24 21:51:28;;;;;;;10.30;5.90;;;;;;;8.12;55.12;97725.32;233835;179;153239;-52
2024/03/24 21:56:31;;;;;;;14.80;6.50;;;;;;;8.04;55.52;97724.96;233846;179;137271;-54
2024/03/24 22:01:34;;;;;;;12.50;5.80;;;;;;;7.99;55.32;97729.96;233833;179;137037;-56
2024/03/24 22:06:37;;;;;;;14.30;5.70;;;;;;;7.93;55.37;97721.02;233771;179;152898;-56
2024/03/24 22:11:57;;;;;;;11.30;6.10;;;;;;;7.89;56.36;97714.41;233806;179;137161;-55
2024/03/24 22:17:00;;;;;;;11.90;6.10;;;;;;;7.79;56.88;97710.23;233786;179;137954;-50
2024/03/24 22:22:05;;;;;;;11.80;6.10;;;;;;;7.69;57.26;97704.38;233860;172;153739;-53
2024/03/24 22:27:08;;;;;;;14.10;5.70;;;;;;;7.54;57.55;97697.15;233837;179;137175;-53
2024/03/24 22:32:11;;;;;;;11.30;4.80;;;;;;;7.47;57.36;97691.35;233854;179;140554;-51
2024/03/24 22:37:14;;;;;;;10.30;4.80;;;;;;;7.47;57.16;97686.36;233835;179;153182;-51
2024/03/24 22:42:18;;;;;;;8.60;4.70;;;;;;;7.52;57.00;97687.27;233846;179;138064;-50
2024/03/24 22:47:20;;;;;;;7.60;3.60;;;;;;;7.57;56.62;97685.67;233798;179;138018;-51
2024/03/24 22:52:24;;;;;;;8.70;4.00;;;;;;;7.59;56.22;97678.65;233808;179;153464;-51
2024/03/24 22:57:27;;;;;;;7.80;3.80;;;;;;;7.53;56.57;97681.20;233778;179;137187;-55
2024/03/24 23:02:31;;;;;;;9.70;4.40;;;;;;;7.42;56.58;97680.42;233852;179;137272;-54
2024/03/24 23:07:35;;;;;;;7.50;3.80;;;;;;;7.33;57.07;97675.21;233814;179;153739;-50
2024/03/24 23:12:38;;;;;;;9.20;4.40;;;;;;;7.18;57.23;97679.08;233860;179;138256;-50
2024/03/24 23:17:41;;;;;;;9.00;4.60;;;;;;;7.13;57.55;97673.98;233829;179;137495;-52
2024/03/24 23:22:44;;;;;;;8.00;4.30;;;;;;;7.06;58.36;97672.34;233823;179;152949;-53
2024/03/24 23:27:47;;;;;;;7.20;4.10;;;;;;;6.95;59.15;97673.83;233869;179;138104;-56
2024/03/24 23:32:50;;;;;;;9.20;4.70;;;;;;;6.84;59.50;97674.40;233823;179;139570;-56
2024/03/24 23:37:53;;;;;;;14.20;4.90;;;;;;;6.74;59.74;97672.27;233951;168;152948;-53
2024/03/24 23:42:56;;;;;;;14.30;5.00;;;;;;;6.64;60.05;97672.79;232725;178;139248;-53
2024/03/24 23:48:01;;;;;;;8.80;4.40;;;;;;;6.51;60.36;97668.54;233866;178;138044;-51
2024/03/24 23:53:04;;;;;;;10.20;4.30;;;;;;;6.37;60.53;97666.34;233914;179;153631;-53